sensor_id;sensor_type;location;lat;lon;timestamp;P1;durP1;ratioP1;P2;durP2;ratioP2
1090;SDS011;534;48.704;9.122;2024-02-26T05:02:11;5.10;;;2.17;;
1090;SDS011;534;48.704;9.122;2024-02-26T05:04:38;5.67;;;2.10;;
1090;SDS011;534;48.704;9.122;2024-02-26T05:07:04;5.20;;;1.87;;
1090;SDS011;534;48.704;9.122;2024-02-26T05:09:31;5.10;;;2.17;;
1090;SDS011;534;48.704;9.122;2024-02-26T05:11:58;5.20;;;2.10;;
1090;SDS011;534;48.704;9.122;2024-02-26T05:14:25;4.60;;;1.70;;
1090;SDS011;534;48.704;9.122;2024-02-26T05:16:51;5.80;;;2.20;;
1090;SDS011;534;48.704;9.122;2024-02-26T05:19:19;6.40;;;2.10;;
1090;SDS011;534;48.704;9.122;2024-02-26T05:21:46;5.10;;;2.07;;
1090;SDS011;534;48.704;9.122;2024-02-26T05:24:14;6.63;;;2.70;;
1090;SDS011;534;48.704;9.122;2024-02-26T05:26:42;4.50;;;1.80;;
1090;SDS011;534;48.704;9.122;2024-02-26T05:29:09;5.73;;;1.73;;
1090;SDS011;534;48.704;9.122;2024-02-26T05:31:35;5.30;;;1.67;;
1090;SDS011;534;48.704;9.122;2024-02-26T05:34:02;7.23;;;5.00;;
1090;SDS011;534;48.704;9.122;2024-02-26T05:36:30;9.77;;;5.23;;
1090;SDS011;534;48.704;9.122;2024-02-26T05:38:58;6.23;;;2.80;;
1090;SDS011;534;48.704;9.122;2024-02-26T05:41:25;6.13;;;2.80;;
1090;SDS011;534;48.704;9.122;2024-02-26T05:43:52;5.20;;;2.20;;
1090;SDS011;534;48.704;9.122;2024-02-26T05:46:18;5.20;;;2.20;;
1090;SDS011;534;48.704;9.122;2024-02-26T05:48:46;4.73;;;2.10;;
1090;SDS011;534;48.704;9.122;2024-02-26T05:51:15;6.57;;;2.30;;
1090;SDS011;534;48.704;9.122;2024-02-26T05:53:43;5.00;;;2.10;;
1090;SDS011;534;48.704;9.122;2024-02-26T05:56:10;5.80;;;2.00;;
1090;SDS011;534;48.704;9.122;2024-02-26T05:58:37;4.40;;;1.60;;
1090;SDS011;534;48.704;9.122;2024-02-26T06:01:03;4.80;;;1.60;;
1090;SDS011;534;48.704;9.122;2024-02-26T06:03:30;5.17;;;2.13;;
1090;SDS011;534;48.704;9.122;2024-02-26T06:05:57;5.57;;;1.50;;
1090;SDS011;534;48.704;9.122;2024-02-26T06:08:24;4.70;;;1.40;;
1090;SDS011;534;48.704;9.122;2024-02-26T06:10:52;4.90;;;1.93;;
1090;SDS011;534;48.704;9.122;2024-02-26T06:13:19;4.50;;;1.43;;
1090;SDS011;534;48.704;9.122;2024-02-26T06:15:45;5.20;;;1.80;;
1090;SDS011;534;48.704;9.122;2024-02-26T06:18:12;5.60;;;1.87;;
1090;SDS011;534;48.704;9.122;2024-02-26T06:20:39;4.30;;;1.40;;
1090;SDS011;534;48.704;9.122;2024-02-26T06:23:05;4.60;;;1.50;;
1090;SDS011;534;48.704;9.122;2024-02-26T06:25:33;4.90;;;1.67;;
1090;SDS011;534;48.704;9.122;2024-02-26T06:28:01;4.40;;;1.60;;
1090;SDS011;534;48.704;9.122;2024-02-26T06:30:27;5.30;;;1.93;;
1090;SDS011;534;48.704;9.122;2024-02-26T06:32:54;5.27;;;1.90;;
1090;SDS011;534;48.704;9.122;2024-02-26T06:35:20;5.10;;;2.17;;
1090;SDS011;534;48.704;9.122;2024-02-26T06:37:47;4.83;;;2.03;;
1090;SDS011;534;48.704;9.122;2024-02-26T06:40:15;5.20;;;1.90;;
1090;SDS011;534;48.704;9.122;2024-02-26T06:42:42;6.10;;;2.77;;
1090;SDS011;534;48.704;9.122;2024-02-26T06:45:10;5.73;;;1.90;;
1090;SDS011;534;48.704;9.122;2024-02-26T06:47:37;4.87;;;1.87;;
1090;SDS011;534;48.704;9.122;2024-02-26T06:50:04;5.00;;;1.73;;
1090;SDS011;534;48.704;9.122;2024-02-26T06:52:31;5.50;;;1.83;;
1090;SDS011;534;48.704;9.122;2024-02-26T06:54:58;5.70;;;2.03;;
1090;SDS011;534;48.704;9.122;2024-02-26T06:57:24;4.97;;;1.87;;
1090;SDS011;534;48.704;9.122;2024-02-26T06:59:51;4.73;;;1.57;;
1090;SDS011;534;48.704;9.122;2024-02-26T07:02:19;5.10;;;1.80;;
1090;SDS011;534;48.704;9.122;2024-02-26T07:04:45;5.00;;;1.80;;
1090;SDS011;534;48.704;9.122;2024-02-26T07:07:12;5.20;;;1.80;;
1090;SDS011;534;48.704;9.122;2024-02-26T07:09:41;4.50;;;1.50;;
1090;SDS011;534;48.704;9.122;2024-02-26T07:12:08;5.00;;;1.80;;
1090;SDS011;534;48.704;9.122;2024-02-26T07:14:35;4.70;;;1.60;;
1090;SDS011;534;48.704;9.122;2024-02-26T07:17:03;4.20;;;1.40;;
1090;SDS011;534;48.704;9.122;2024-02-26T07:19:31;5.30;;;2.20;;
1090;SDS011;534;48.704;9.122;2024-02-26T07:21:57;5.30;;;2.27;;
1090;SDS011;534;48.704;9.122;2024-02-26T07:24:26;5.30;;;1.80;;
1090;SDS011;534;48.704;9.122;2024-02-26T07:26:53;4.73;;;1.70;;
1090;SDS011;534;48.704;9.122;2024-02-26T07:29:20;6.37;;;3.10;;
1090;SDS011;534;48.704;9.122;2024-02-26T07:31:47;6.33;;;2.43;;
1090;SDS011;534;48.704;9.122;2024-02-26T07:34:13;9.50;;;2.73;;
1090;SDS011;534;48.704;9.122;2024-02-26T07:36:41;5.73;;;2.33;;
1090;SDS011;534;48.704;9.122;2024-02-26T07:39:08;12.23;;;2.63;;
1090;SDS011;534;48.704;9.122;2024-02-26T07:41:35;6.47;;;2.03;;
1090;SDS011;534;48.704;9.122;2024-02-26T07:44:03;8.33;;;2.23;;
1090;SDS011;534;48.704;9.122;2024-02-26T07:46:30;6.73;;;2.10;;
1090;SDS011;534;48.704;9.122;2024-02-26T07:48:57;8.40;;;2.20;;
1090;SDS011;534;48.704;9.122;2024-02-26T07:51:23;4.57;;;1.83;;
1090;SDS011;534;48.704;9.122;2024-02-26T07:53:51;5.40;;;1.60;;
1090;SDS011;534;48.704;9.122;2024-02-26T07:56:18;15.37;;;2.70;;
1090;SDS011;534;48.704;9.122;2024-02-26T07:58:45;5.20;;;2.30;;
1090;SDS011;534;48.704;9.122;2024-02-26T08:01:12;7.20;;;3.93;;
1090;SDS011;534;48.704;9.122;2024-02-26T08:03:39;8.87;;;4.77;;
1090;SDS011;534;48.704;9.122;2024-02-26T08:06:07;6.43;;;3.23;;
1090;SDS011;534;48.704;9.122;2024-02-26T08:08:34;7.70;;;3.07;;
1090;SDS011;534;48.704;9.122;2024-02-26T08:11:02;4.90;;;1.83;;
1090;SDS011;534;48.704;9.122;2024-02-26T08:13:29;4.33;;;1.70;;
1090;SDS011;534;48.704;9.122;2024-02-26T08:15:56;4.50;;;1.53;;
1090;SDS011;534;48.704;9.122;2024-02-26T08:18:23;5.50;;;2.30;;
1090;SDS011;534;48.704;9.122;2024-02-26T08:20:50;8.07;;;5.57;;
1090;SDS011;534;48.704;9.122;2024-02-26T08:23:17;6.87;;;4.83;;
1090;SDS011;534;48.704;9.122;2024-02-26T08:25:43;6.40;;;3.73;;
1090;SDS011;534;48.704;9.122;2024-02-26T08:28:11;7.00;;;3.13;;
1090;SDS011;534;48.704;9.122;2024-02-26T08:30:39;6.30;;;3.27;;
1090;SDS011;534;48.704;9.122;2024-02-26T08:33:05;6.47;;;3.43;;
1090;SDS011;534;48.704;9.122;2024-02-26T08:35:32;7.13;;;3.67;;
1090;SDS011;534;48.704;9.122;2024-02-26T08:37:59;7.33;;;3.40;;
1090;SDS011;534;48.704;9.122;2024-02-26T08:40:25;7.30;;;3.40;;
1090;SDS011;534;48.704;9.122;2024-02-26T08:42:52;6.03;;;2.77;;
1090;SDS011;534;48.704;9.122;2024-02-26T08:45:20;8.80;;;4.13;;
1090;SDS011;534;48.704;9.122;2024-02-26T08:47:47;5.60;;;2.90;;
1090;SDS011;534;48.704;9.122;2024-02-26T08:50:14;6.27;;;2.40;;
1090;SDS011;534;48.704;9.122;2024-02-26T08:52:40;6.17;;;2.60;;
1090;SDS011;534;48.704;9.122;2024-02-26T08:55:07;6.87;;;2.40;;
1090;SDS011;534;48.704;9.122;2024-02-26T08:57:34;6.70;;;2.20;;
1090;SDS011;534;48.704;9.122;2024-02-26T09:00:01;8.00;;;3.60;;
1090;SDS011;534;48.704;9.122;2024-02-26T09:02:29;6.47;;;2.10;;
1090;SDS011;534;48.704;9.122;2024-02-26T09:04:56;5.77;;;2.40;;
1090;SDS011;534;48.704;9.122;2024-02-26T09:07:22;5.10;;;2.20;;
1090;SDS011;534;48.704;9.122;2024-02-26T09:09:49;5.67;;;2.20;;
1090;SDS011;534;48.704;9.122;2024-02-26T09:12:16;4.80;;;2.40;;
1090;SDS011;534;48.704;9.122;2024-02-26T09:14:42;5.50;;;1.90;;
1090;SDS011;534;48.704;9.122;2024-02-26T09:17:09;5.70;;;2.10;;
1090;SDS011;534;48.704;9.122;2024-02-26T09:19:37;5.77;;;2.00;;
1090;SDS011;534;48.704;9.122;2024-02-26T09:22:04;5.30;;;2.30;;
1090;SDS011;534;48.704;9.122;2024-02-26T09:24:31;6.80;;;2.10;;
1090;SDS011;534;48.704;9.122;2024-02-26T09:26:57;5.53;;;2.20;;
1090;SDS011;534;48.704;9.122;2024-02-26T09:29:24;5.07;;;2.00;;
1090;SDS011;534;48.704;9.122;2024-02-26T09:31:51;5.20;;;2.20;;
1090;SDS011;534;48.704;9.122;2024-02-26T09:34:18;5.03;;;2.40;;
1090;SDS011;534;48.704;9.122;2024-02-26T09:36:46;5.57;;;2.70;;
1090;SDS011;534;48.704;9.122;2024-02-26T09:39:12;5.57;;;2.50;;
1090;SDS011;534;48.704;9.122;2024-02-26T09:41:45;6.30;;;2.10;;
1090;SDS011;534;48.704;9.122;2024-02-26T09:44:12;7.20;;;3.70;;
1090;SDS011;534;48.704;9.122;2024-02-26T09:46:41;9.40;;;3.23;;
1090;SDS011;534;48.704;9.122;2024-02-26T09:49:08;5.50;;;2.90;;
1090;SDS011;534;48.704;9.122;2024-02-26T09:51:37;6.30;;;3.27;;
1090;SDS011;534;48.704;9.122;2024-02-26T09:54:05;5.83;;;3.03;;
1090;SDS011;534;48.704;9.122;2024-02-26T09:56:35;6.87;;;3.33;;
1090;SDS011;534;48.704;9.122;2024-02-26T09:59:05;6.60;;;3.20;;
1090;SDS011;534;48.704;9.122;2024-02-26T10:01:35;7.30;;;3.10;;
1090;SDS011;534;48.704;9.122;2024-02-26T10:04:04;6.20;;;3.40;;
1090;SDS011;534;48.704;9.122;2024-02-26T10:06:30;5.80;;;2.53;;
1090;SDS011;534;48.704;9.122;2024-02-26T10:08:57;10.80;;;3.40;;
1090;SDS011;534;48.704;9.122;2024-02-26T10:11:26;6.43;;;3.13;;
1090;SDS011;534;48.704;9.122;2024-02-26T10:13:53;7.13;;;2.97;;
1090;SDS011;534;48.704;9.122;2024-02-26T10:16:20;7.20;;;2.67;;
1090;SDS011;534;48.704;9.122;2024-02-26T10:18:48;6.17;;;2.60;;
1090;SDS011;534;48.704;9.122;2024-02-26T10:21:15;10.00;;;3.20;;
1090;SDS011;534;48.704;9.122;2024-02-26T10:23:43;7.43;;;2.77;;
1090;SDS011;534;48.704;9.122;2024-02-26T10:26:09;9.13;;;1.97;;
1090;SDS011;534;48.704;9.122;2024-02-26T10:28:38;8.63;;;2.43;;
1090;SDS011;534;48.704;9.122;2024-02-26T10:31:06;6.27;;;2.80;;
1090;SDS011;534;48.704;9.122;2024-02-26T10:33:33;5.20;;;2.50;;
1090;SDS011;534;48.704;9.122;2024-02-26T10:36:00;5.70;;;2.70;;
1090;SDS011;534;48.704;9.122;2024-02-26T10:38:27;6.67;;;3.53;;
1090;SDS011;534;48.704;9.122;2024-02-26T10:40:55;8.30;;;3.40;;
1090;SDS011;534;48.704;9.122;2024-02-26T10:43:22;6.37;;;3.37;;
1090;SDS011;534;48.704;9.122;2024-02-26T10:45:50;7.33;;;3.30;;
1090;SDS011;534;48.704;9.122;2024-02-26T10:48:16;7.80;;;3.60;;
1090;SDS011;534;48.704;9.122;2024-02-26T10:50:44;10.37;;;4.30;;
1090;SDS011;534;48.704;9.122;2024-02-26T10:53:12;8.30;;;3.53;;
1090;SDS011;534;48.704;9.122;2024-02-26T10:55:43;7.50;;;3.60;;
1090;SDS011;534;48.704;9.122;2024-02-26T10:58:14;6.00;;;2.57;;
1090;SDS011;534;48.704;9.122;2024-02-26T11:00:43;6.27;;;3.00;;
1090;SDS011;534;48.704;9.122;2024-02-26T11:03:11;6.77;;;3.20;;
1090;SDS011;534;48.704;9.122;2024-02-26T11:05:41;7.43;;;2.73;;
1090;SDS011;534;48.704;9.122;2024-02-26T11:08:08;6.67;;;3.10;;
1090;SDS011;534;48.704;9.122;2024-02-26T11:10:36;6.27;;;2.20;;
1090;SDS011;534;48.704;9.122;2024-02-26T11:13:03;6.23;;;2.93;;
1090;SDS011;534;48.704;9.122;2024-02-26T11:15:32;6.07;;;3.10;;
1090;SDS011;534;48.704;9.122;2024-02-26T11:17:59;5.60;;;2.50;;
1090;SDS011;534;48.704;9.122;2024-02-26T11:20:28;6.17;;;2.63;;
1090;SDS011;534;48.704;9.122;2024-02-26T11:22:55;5.80;;;2.47;;
1090;SDS011;534;48.704;9.122;2024-02-26T11:25:22;6.77;;;2.13;;
1090;SDS011;534;48.704;9.122;2024-02-26T11:27:51;4.90;;;2.13;;
1090;SDS011;534;48.704;9.122;2024-02-26T11:30:22;6.83;;;2.23;;
1090;SDS011;534;48.704;9.122;2024-02-26T11:32:50;8.23;;;2.43;;
1090;SDS011;534;48.704;9.122;2024-02-26T11:35:17;6.90;;;1.90;;
1090;SDS011;534;48.704;9.122;2024-02-26T11:37:52;5.90;;;1.87;;
1090;SDS011;534;48.704;9.122;2024-02-26T11:40:19;5.03;;;1.97;;
1090;SDS011;534;48.704;9.122;2024-02-26T11:42:46;6.30;;;2.33;;
1090;SDS011;534;48.704;9.122;2024-02-26T11:48:24;5.73;;;2.30;;
1090;SDS011;534;48.704;9.122;2024-02-26T11:50:52;5.30;;;2.30;;
1090;SDS011;534;48.704;9.122;2024-02-26T11:53:21;5.17;;;1.93;;
1090;SDS011;534;48.704;9.122;2024-02-26T11:58:58;6.23;;;3.03;;
1090;SDS011;534;48.704;9.122;2024-02-26T12:01:36;5.90;;;2.80;;
1090;SDS011;534;48.704;9.122;2024-02-26T12:04:07;6.97;;;2.27;;
1090;SDS011;534;48.704;9.122;2024-02-26T12:06:43;6.00;;;2.17;;
1090;SDS011;534;48.704;9.122;2024-02-26T12:09:16;4.60;;;1.90;;
1090;SDS011;534;48.704;9.122;2024-02-26T12:11:57;5.70;;;2.37;;
1090;SDS011;534;48.704;9.122;2024-02-26T12:14:25;7.00;;;1.93;;
1090;SDS011;534;48.704;9.122;2024-02-26T12:16:52;5.13;;;2.50;;
1090;SDS011;534;48.704;9.122;2024-02-26T12:19:19;6.23;;;2.07;;
1090;SDS011;534;48.704;9.122;2024-02-26T12:21:45;5.37;;;1.70;;
1090;SDS011;534;48.704;9.122;2024-02-26T12:24:19;6.00;;;2.10;;
1090;SDS011;534;48.704;9.122;2024-02-26T12:26:46;5.30;;;2.40;;
1090;SDS011;534;48.704;9.122;2024-02-26T12:29:13;5.50;;;1.97;;
1090;SDS011;534;48.704;9.122;2024-02-26T12:31:40;5.30;;;2.03;;
1090;SDS011;534;48.704;9.122;2024-02-26T12:34:07;4.70;;;1.80;;
1090;SDS011;534;48.704;9.122;2024-02-26T12:36:35;5.90;;;1.73;;
1090;SDS011;534;48.704;9.122;2024-02-26T12:39:03;5.17;;;1.70;;
1090;SDS011;534;48.704;9.122;2024-02-26T12:41:32;4.90;;;1.70;;
1090;SDS011;534;48.704;9.122;2024-02-26T12:43:58;5.70;;;1.60;;
1090;SDS011;534;48.704;9.122;2024-02-26T12:46:25;4.47;;;1.37;;
1090;SDS011;534;48.704;9.122;2024-02-26T12:48:54;4.20;;;1.40;;
1090;SDS011;534;48.704;9.122;2024-02-26T12:51:23;4.93;;;1.73;;
1090;SDS011;534;48.704;9.122;2024-02-26T12:53:50;4.70;;;1.73;;
1090;SDS011;534;48.704;9.122;2024-02-26T12:56:17;6.60;;;2.20;;
1090;SDS011;534;48.704;9.122;2024-02-26T12:58:46;6.00;;;1.70;;
1090;SDS011;534;48.704;9.122;2024-02-26T13:01:14;6.87;;;3.17;;
1090;SDS011;534;48.704;9.122;2024-02-26T13:03:43;5.20;;;2.40;;
1090;SDS011;534;48.704;9.122;2024-02-26T13:06:10;4.67;;;1.40;;
1090;SDS011;534;48.704;9.122;2024-02-26T13:08:37;4.80;;;1.23;;
1090;SDS011;534;48.704;9.122;2024-02-26T13:11:04;4.53;;;1.50;;
1090;SDS011;534;48.704;9.122;2024-02-26T13:13:31;4.30;;;1.10;;
1090;SDS011;534;48.704;9.122;2024-02-26T13:16:02;4.80;;;1.40;;
1090;SDS011;534;48.704;9.122;2024-02-26T13:18:31;4.53;;;1.30;;
1090;SDS011;534;48.704;9.122;2024-02-26T13:21:07;5.00;;;1.33;;
1090;SDS011;534;48.704;9.122;2024-02-26T13:23:35;6.17;;;1.30;;
1090;SDS011;534;48.704;9.122;2024-02-26T13:26:03;8.20;;;1.10;;
1090;SDS011;534;48.704;9.122;2024-02-26T13:28:29;4.57;;;1.30;;
1090;SDS011;534;48.704;9.122;2024-02-26T13:30:56;5.17;;;1.57;;
1090;SDS011;534;48.704;9.122;2024-02-26T13:33:26;5.17;;;1.60;;
1090;SDS011;534;48.704;9.122;2024-02-26T13:35:54;5.20;;;1.50;;
1090;SDS011;534;48.704;9.122;2024-02-26T13:38:21;4.63;;;1.30;;
1090;SDS011;534;48.704;9.122;2024-02-26T13:40:48;4.93;;;1.30;;
1090;SDS011;534;48.704;9.122;2024-02-26T13:43:16;4.73;;;1.47;;
1090;SDS011;534;48.704;9.122;2024-02-26T13:45:42;4.37;;;1.10;;
1090;SDS011;534;48.704;9.122;2024-02-26T13:48:10;5.80;;;1.77;;
1090;SDS011;534;48.704;9.122;2024-02-26T13:50:38;3.97;;;1.00;;
1090;SDS011;534;48.704;9.122;2024-02-26T13:53:05;4.80;;;1.03;;
1090;SDS011;534;48.704;9.122;2024-02-26T13:55:32;6.03;;;1.40;;
1090;SDS011;534;48.704;9.122;2024-02-26T13:58:00;4.50;;;1.23;;
1090;SDS011;534;48.704;9.122;2024-02-26T14:00:27;5.80;;;1.17;;
1090;SDS011;534;48.704;9.122;2024-02-26T14:02:55;5.00;;;1.50;;
1090;SDS011;534;48.704;9.122;2024-02-26T14:05:21;5.00;;;1.50;;
1090;SDS011;534;48.704;9.122;2024-02-26T14:07:49;4.60;;;1.03;;
1090;SDS011;534;48.704;9.122;2024-02-26T14:10:16;4.20;;;1.10;;
1090;SDS011;534;48.704;9.122;2024-02-26T14:12:42;4.60;;;1.27;;
1090;SDS011;534;48.704;9.122;2024-02-26T14:15:09;4.40;;;1.20;;
1090;SDS011;534;48.704;9.122;2024-02-26T14:17:36;4.30;;;1.30;;
1090;SDS011;534;48.704;9.122;2024-02-26T14:20:03;4.30;;;0.90;;
1090;SDS011;534;48.704;9.122;2024-02-26T14:22:32;4.00;;;1.10;;
1090;SDS011;534;48.704;9.122;2024-02-26T14:25:01;4.10;;;1.40;;
1090;SDS011;534;48.704;9.122;2024-02-26T14:27:27;4.37;;;1.33;;
1090;SDS011;534;48.704;9.122;2024-02-26T14:29:54;3.90;;;1.00;;
1090;SDS011;534;48.704;9.122;2024-02-26T14:32:21;4.07;;;1.20;;
1090;SDS011;534;48.704;9.122;2024-02-26T14:34:47;4.30;;;1.10;;
1090;SDS011;534;48.704;9.122;2024-02-26T14:37:14;5.90;;;1.70;;
1090;SDS011;534;48.704;9.122;2024-02-26T14:39:41;5.40;;;1.90;;
1090;SDS011;534;48.704;9.122;2024-02-26T14:42:09;5.30;;;1.57;;
1090;SDS011;534;48.704;9.122;2024-02-26T14:44:35;5.00;;;1.50;;
1090;SDS011;534;48.704;9.122;2024-02-26T14:47:02;6.13;;;2.07;;
1090;SDS011;534;48.704;9.122;2024-02-26T14:49:29;5.40;;;2.23;;
1090;SDS011;534;48.704;9.122;2024-02-26T14:51:56;4.43;;;1.40;;
1090;SDS011;534;48.704;9.122;2024-02-26T14:54:23;4.47;;;1.43;;
1090;SDS011;534;48.704;9.122;2024-02-26T14:56:49;6.10;;;1.70;;
1090;SDS011;534;48.704;9.122;2024-02-26T14:59:17;4.50;;;1.37;;
1090;SDS011;534;48.704;9.122;2024-02-26T15:01:44;4.70;;;1.40;;
1090;SDS011;534;48.704;9.122;2024-02-26T15:04:11;7.70;;;1.73;;
1090;SDS011;534;48.704;9.122;2024-02-26T15:06:37;4.50;;;1.40;;
1090;SDS011;534;48.704;9.122;2024-02-26T15:09:04;5.07;;;1.30;;
1090;SDS011;534;48.704;9.122;2024-02-26T15:11:31;5.23;;;1.70;;
1090;SDS011;534;48.704;9.122;2024-02-26T15:13:57;4.23;;;1.30;;
1090;SDS011;534;48.704;9.122;2024-02-26T15:16:25;5.20;;;1.90;;
1090;SDS011;534;48.704;9.122;2024-02-26T15:18:52;4.80;;;1.50;;
1090;SDS011;534;48.704;9.122;2024-02-26T15:21:19;16.43;;;2.07;;
1090;SDS011;534;48.704;9.122;2024-02-26T15:23:45;4.70;;;1.70;;
1090;SDS011;534;48.704;9.122;2024-02-26T15:26:14;4.30;;;1.50;;
1090;SDS011;534;48.704;9.122;2024-02-26T15:28:40;4.30;;;1.60;;
1090;SDS011;534;48.704;9.122;2024-02-26T15:31:07;4.30;;;1.50;;
1090;SDS011;534;48.704;9.122;2024-02-26T15:33:35;5.03;;;1.93;;
1090;SDS011;534;48.704;9.122;2024-02-26T15:36:02;5.10;;;1.50;;
1090;SDS011;534;48.704;9.122;2024-02-26T15:38:29;7.60;;;2.00;;
1090;SDS011;534;48.704;9.122;2024-02-26T15:40:56;4.87;;;1.30;;
1090;SDS011;534;48.704;9.122;2024-02-26T15:43:22;4.10;;;1.37;;
1090;SDS011;534;48.704;9.122;2024-02-26T15:45:49;4.93;;;1.63;;
1090;SDS011;534;48.704;9.122;2024-02-26T15:48:15;4.30;;;1.37;;
1090;SDS011;534;48.704;9.122;2024-02-26T15:50:43;5.10;;;1.50;;
1090;SDS011;534;48.704;9.122;2024-02-26T15:53:10;5.27;;;1.60;;
1090;SDS011;534;48.704;9.122;2024-02-26T15:55:37;5.00;;;1.50;;
1090;SDS011;534;48.704;9.122;2024-02-26T15:58:03;4.70;;;1.53;;
1090;SDS011;534;48.704;9.122;2024-02-26T16:00:34;4.87;;;1.63;;
1090;SDS011;534;48.704;9.122;2024-02-26T16:03:05;4.50;;;1.67;;
1090;SDS011;534;48.704;9.122;2024-02-26T16:05:32;5.30;;;1.53;;
1090;SDS011;534;48.704;9.122;2024-02-26T16:08:01;6.00;;;2.03;;
1090;SDS011;534;48.704;9.122;2024-02-26T16:10:32;5.80;;;1.40;;
1090;SDS011;534;48.704;9.122;2024-02-26T16:13:00;5.30;;;1.63;;
1090;SDS011;534;48.704;9.122;2024-02-26T16:15:27;5.63;;;1.90;;
1090;SDS011;534;48.704;9.122;2024-02-26T16:17:55;4.83;;;1.80;;
1090;SDS011;534;48.704;9.122;2024-02-26T16:20:23;5.40;;;1.67;;
1090;SDS011;534;48.704;9.122;2024-02-26T16:22:53;6.50;;;2.60;;
1090;SDS011;534;48.704;9.122;2024-02-26T16:25:21;6.53;;;2.50;;
1090;SDS011;534;48.704;9.122;2024-02-26T16:27:48;5.43;;;1.80;;
1090;SDS011;534;48.704;9.122;2024-02-26T16:30:15;6.17;;;2.20;;
1090;SDS011;534;48.704;9.122;2024-02-26T16:32:42;5.43;;;2.43;;
1090;SDS011;534;48.704;9.122;2024-02-26T16:35:09;5.20;;;1.93;;
1090;SDS011;534;48.704;9.122;2024-02-26T16:37:36;4.90;;;2.00;;
1090;SDS011;534;48.704;9.122;2024-02-26T16:40:03;4.97;;;1.87;;
1090;SDS011;534;48.704;9.122;2024-02-26T16:42:35;5.00;;;2.13;;
1090;SDS011;534;48.704;9.122;2024-02-26T16:45:02;7.63;;;2.20;;
1090;SDS011;534;48.704;9.122;2024-02-26T16:47:29;4.50;;;2.00;;
1090;SDS011;534;48.704;9.122;2024-02-26T16:49:55;5.83;;;1.97;;
1090;SDS011;534;48.704;9.122;2024-02-26T16:52:22;4.97;;;2.00;;
1090;SDS011;534;48.704;9.122;2024-02-26T16:54:50;5.87;;;2.10;;
1090;SDS011;534;48.704;9.122;2024-02-26T16:57:17;5.10;;;2.10;;
1090;SDS011;534;48.704;9.122;2024-02-26T16:59:46;7.73;;;3.90;;
1090;SDS011;534;48.704;9.122;2024-02-26T17:02:12;11.87;;;7.57;;
1090;SDS011;534;48.704;9.122;2024-02-26T17:04:39;10.33;;;5.13;;
1090;SDS011;534;48.704;9.122;2024-02-26T17:07:06;9.93;;;3.90;;
1090;SDS011;534;48.704;9.122;2024-02-26T17:09:32;7.10;;;3.50;;
1090;SDS011;534;48.704;9.122;2024-02-26T17:11:59;7.70;;;3.70;;
1090;SDS011;534;48.704;9.122;2024-02-26T17:14:26;7.60;;;3.60;;
1090;SDS011;534;48.704;9.122;2024-02-26T17:16:57;6.13;;;2.77;;
1090;SDS011;534;48.704;9.122;2024-02-26T17:19:25;6.20;;;3.20;;
1090;SDS011;534;48.704;9.122;2024-02-26T17:21:52;7.53;;;2.80;;
1090;SDS011;534;48.704;9.122;2024-02-26T17:24:18;7.77;;;3.70;;
1090;SDS011;534;48.704;9.122;2024-02-26T17:26:45;8.03;;;3.33;;
1090;SDS011;534;48.704;9.122;2024-02-26T17:29:12;7.17;;;3.20;;
1090;SDS011;534;48.704;9.122;2024-02-26T17:31:40;5.93;;;2.70;;
1090;SDS011;534;48.704;9.122;2024-02-26T17:34:09;10.43;;;3.40;;
1090;SDS011;534;48.704;9.122;2024-02-26T17:36:36;6.80;;;3.70;;
1090;SDS011;534;48.704;9.122;2024-02-26T17:39:04;6.53;;;2.83;;
1090;SDS011;534;48.704;9.122;2024-02-26T17:41:31;5.53;;;2.80;;
1090;SDS011;534;48.704;9.122;2024-02-26T17:43:58;6.50;;;3.43;;
1090;SDS011;534;48.704;9.122;2024-02-26T17:46:24;10.60;;;5.40;;
1090;SDS011;534;48.704;9.122;2024-02-26T17:48:51;9.13;;;4.97;;
1090;SDS011;534;48.704;9.122;2024-02-26T17:51:19;6.87;;;3.90;;
1090;SDS011;534;48.704;9.122;2024-02-26T17:53:45;11.03;;;3.87;;
1090;SDS011;534;48.704;9.122;2024-02-26T17:56:12;8.77;;;3.80;;
1090;SDS011;534;48.704;9.122;2024-02-26T17:58:39;7.30;;;3.73;;
1090;SDS011;534;48.704;9.122;2024-02-26T18:01:07;8.23;;;3.60;;
1090;SDS011;534;48.704;9.122;2024-02-26T18:03:33;7.17;;;3.37;;
1090;SDS011;534;48.704;9.122;2024-02-26T18:06:00;6.60;;;3.83;;
1090;SDS011;534;48.704;9.122;2024-02-26T18:08:29;6.90;;;3.57;;
1090;SDS011;534;48.704;9.122;2024-02-26T18:10:55;7.97;;;4.23;;
1090;SDS011;534;48.704;9.122;2024-02-26T18:13:22;6.43;;;3.00;;
1090;SDS011;534;48.704;9.122;2024-02-26T18:15:49;5.90;;;2.70;;
1090;SDS011;534;48.704;9.122;2024-02-26T18:18:15;7.07;;;2.90;;
1090;SDS011;534;48.704;9.122;2024-02-26T18:20:42;6.77;;;3.63;;
1090;SDS011;534;48.704;9.122;2024-02-26T18:23:09;5.60;;;2.27;;
1090;SDS011;534;48.704;9.122;2024-02-26T18:25:37;6.03;;;2.83;;
1090;SDS011;534;48.704;9.122;2024-02-26T18:28:03;6.50;;;2.77;;
1090;SDS011;534;48.704;9.122;2024-02-26T18:30:30;6.03;;;2.60;;
1090;SDS011;534;48.704;9.122;2024-02-26T18:32:57;7.93;;;3.87;;
1090;SDS011;534;48.704;9.122;2024-02-26T18:35:23;5.13;;;2.47;;
1090;SDS011;534;48.704;9.122;2024-02-26T18:37:50;6.00;;;2.87;;
1090;SDS011;534;48.704;9.122;2024-02-26T18:40:17;6.07;;;2.47;;
1090;SDS011;534;48.704;9.122;2024-02-26T18:42:45;6.63;;;2.90;;
1090;SDS011;534;48.704;9.122;2024-02-26T18:45:12;5.63;;;2.37;;
1090;SDS011;534;48.704;9.122;2024-02-26T18:47:38;5.20;;;2.53;;
1090;SDS011;534;48.704;9.122;2024-02-26T18:50:06;5.60;;;2.50;;
1090;SDS011;534;48.704;9.122;2024-02-26T18:52:33;6.20;;;3.13;;
1090;SDS011;534;48.704;9.122;2024-02-26T18:55:00;5.73;;;2.77;;
1090;SDS011;534;48.704;9.122;2024-02-26T18:57:26;10.47;;;3.83;;
1090;SDS011;534;48.704;9.122;2024-02-26T18:59:55;7.00;;;3.30;;
1090;SDS011;534;48.704;9.122;2024-02-26T19:02:22;8.27;;;3.30;;
1090;SDS011;534;48.704;9.122;2024-02-26T19:04:49;8.70;;;4.37;;
1090;SDS011;534;48.704;9.122;2024-02-26T19:07:16;9.03;;;3.67;;
1090;SDS011;534;48.704;9.122;2024-02-26T19:09:43;8.50;;;4.40;;
1090;SDS011;534;48.704;9.122;2024-02-26T19:12:09;5.63;;;3.03;;
1090;SDS011;534;48.704;9.122;2024-02-26T19:14:37;8.33;;;3.10;;
1090;SDS011;534;48.704;9.122;2024-02-26T19:17:05;6.07;;;2.40;;
1090;SDS011;534;48.704;9.122;2024-02-26T19:19:32;5.63;;;2.47;;
1090;SDS011;534;48.704;9.122;2024-02-26T19:22:01;6.10;;;3.17;;
1090;SDS011;534;48.704;9.122;2024-02-26T19:24:29;6.70;;;3.00;;
1090;SDS011;534;48.704;9.122;2024-02-26T19:26:56;6.87;;;3.30;;
1090;SDS011;534;48.704;9.122;2024-02-26T19:29:22;6.70;;;3.03;;
1090;SDS011;534;48.704;9.122;2024-02-26T19:31:50;5.33;;;2.97;;
1090;SDS011;534;48.704;9.122;2024-02-26T19:34:18;5.93;;;2.70;;
1090;SDS011;534;48.704;9.122;2024-02-26T19:36:44;6.53;;;3.10;;
1090;SDS011;534;48.704;9.122;2024-02-26T19:39:11;8.40;;;3.30;;
1090;SDS011;534;48.704;9.122;2024-02-26T19:41:38;6.63;;;3.20;;
1090;SDS011;534;48.704;9.122;2024-02-26T19:44:05;6.07;;;3.10;;
1090;SDS011;534;48.704;9.122;2024-02-26T19:46:31;6.13;;;3.43;;
1090;SDS011;534;48.704;9.122;2024-02-26T19:48:59;6.97;;;3.60;;
1090;SDS011;534;48.704;9.122;2024-02-26T19:51:27;6.60;;;3.87;;
1090;SDS011;534;48.704;9.122;2024-02-26T19:53:54;5.50;;;2.90;;
1090;SDS011;534;48.704;9.122;2024-02-26T19:56:20;6.67;;;3.10;;
1090;SDS011;534;48.704;9.122;2024-02-26T19:58:49;7.40;;;3.43;;
1090;SDS011;534;48.704;9.122;2024-02-26T20:01:15;6.33;;;3.40;;
1090;SDS011;534;48.704;9.122;2024-02-26T20:03:42;7.43;;;3.70;;
1090;SDS011;534;48.704;9.122;2024-02-26T20:06:10;6.97;;;3.73;;
1090;SDS011;534;48.704;9.122;2024-02-26T20:08:38;8.37;;;3.43;;
1090;SDS011;534;48.704;9.122;2024-02-26T20:11:05;6.30;;;3.60;;
1090;SDS011;534;48.704;9.122;2024-02-26T20:13:32;7.57;;;4.00;;
1090;SDS011;534;48.704;9.122;2024-02-26T20:15:59;7.53;;;4.50;;
1090;SDS011;534;48.704;9.122;2024-02-26T20:18:25;8.50;;;4.40;;
1090;SDS011;534;48.704;9.122;2024-02-26T20:20:52;8.47;;;4.30;;
1090;SDS011;534;48.704;9.122;2024-02-26T20:23:19;6.97;;;3.63;;
1090;SDS011;534;48.704;9.122;2024-02-26T20:25:47;6.20;;;3.63;;
1090;SDS011;534;48.704;9.122;2024-02-26T20:28:13;6.80;;;3.70;;
1090;SDS011;534;48.704;9.122;2024-02-26T20:30:42;8.63;;;3.40;;
1090;SDS011;534;48.704;9.122;2024-02-26T20:33:08;6.83;;;3.70;;
1090;SDS011;534;48.704;9.122;2024-02-26T20:35:35;9.30;;;3.50;;
1090;SDS011;534;48.704;9.122;2024-02-26T20:38:02;5.77;;;3.13;;